createdAt,value
2018-08-10T00:00:39.931Z,18.60
2018-08-10T00:03:10.024Z,19.03
2018-08-10T00:05:39.126Z,18.70
2018-08-10T00:08:08.073Z,18.97
2018-08-10T00:10:36.589Z,18.77
2018-08-10T00:13:05.129Z,19.40
2018-08-10T00:15:33.656Z,18.30
2018-08-10T00:18:02.168Z,18.53
2018-08-10T00:20:30.688Z,18.70
2018-08-10T00:22:59.208Z,18.40
2018-08-10T00:25:27.712Z,18.73
2018-08-10T00:27:56.295Z,17.33
2018-08-10T00:30:24.791Z,18.20
2018-08-10T00:32:53.336Z,18.13
2018-08-10T00:35:21.848Z,17.53
2018-08-10T00:37:50.363Z,18.20
2018-08-10T00:40:20.146Z,17.63
2018-08-10T00:42:48.687Z,17.60
2018-08-10T00:45:18.345Z,17.43
2018-08-10T00:47:47.462Z,17.43
2018-08-10T00:50:16.760Z,17.03
2018-08-10T00:52:46.076Z,18.30
2018-08-10T00:55:16.224Z,17.17
2018-08-10T00:57:45.535Z,17.60
2018-08-10T01:00:19.743Z,17.50
2018-08-10T01:02:48.280Z,17.50
2018-08-10T01:05:16.823Z,17.33
2018-08-10T01:07:45.324Z,17.23
2018-08-10T01:10:16.035Z,16.53
2018-08-10T01:12:44.763Z,17.43
2018-08-10T01:15:14.960Z,16.83
2018-08-10T01:17:44.255Z,16.83
2018-08-10T01:20:15.252Z,17.70
2018-08-10T01:22:48.715Z,17.67
2018-08-10T01:25:18.570Z,17.50
2018-08-10T01:27:52.415Z,16.57
2018-08-10T01:30:20.929Z,16.90
2018-08-10T01:32:49.823Z,17.03
2018-08-10T01:35:18.323Z,16.60
2018-08-10T01:37:46.856Z,16.07
2018-08-10T01:40:15.976Z,15.97
2018-08-10T01:42:44.503Z,17.00
2018-08-10T01:45:13.019Z,16.50
2018-08-10T01:47:41.590Z,16.97
2018-08-10T01:50:10.703Z,16.10
2018-08-10T01:52:40.008Z,16.07
2018-08-10T01:55:09.019Z,16.10
2018-08-10T01:57:38.303Z,16.23
2018-08-10T02:00:07.719Z,16.27
2018-08-10T02:02:36.588Z,16.40
2018-08-10T02:05:06.527Z,16.23
2018-08-10T02:07:38.267Z,16.43
2018-08-10T02:10:09.115Z,16.00
2018-08-10T02:12:38.091Z,15.97
2018-08-10T02:15:09.171Z,16.07
2018-08-10T02:17:38.523Z,15.60
2018-08-10T02:20:08.687Z,15.63
2018-08-10T02:22:37.573Z,16.53
2018-08-10T02:25:09.035Z,16.47
2018-08-10T02:27:38.172Z,15.87
2018-08-10T02:30:08.816Z,16.07
2018-08-10T02:32:37.709Z,16.00
2018-08-10T02:35:06.991Z,15.77
2018-08-10T02:37:35.699Z,15.67
2018-08-10T02:40:05.229Z,15.73
2018-08-10T02:42:33.739Z,15.10
2018-08-10T02:45:02.248Z,14.77
2018-08-10T02:47:30.766Z,16.10
2018-08-10T02:49:59.270Z,14.97
2018-08-10T02:52:27.773Z,15.40
2018-08-10T02:54:56.276Z,15.30
2018-08-10T02:57:24.799Z,15.00
2018-08-10T02:59:53.304Z,15.93
2018-08-10T03:02:21.834Z,14.33
2018-08-10T03:04:50.340Z,14.90
2018-08-10T03:07:18.851Z,15.17
2018-08-10T03:09:47.351Z,14.73
2018-08-10T03:12:15.856Z,14.70
2018-08-10T03:14:44.368Z,14.63
2018-08-10T03:17:12.884Z,14.87
2018-08-10T03:19:41.383Z,14.57
2018-08-10T03:22:09.943Z,14.17
2018-08-10T03:24:38.428Z,14.70
2018-08-10T03:27:07.871Z,13.57
2018-08-10T03:29:36.883Z,13.83
2018-08-10T03:32:05.885Z,14.70
2018-08-10T03:34:34.394Z,13.83
2018-08-10T03:37:02.955Z,14.07
2018-08-10T03:39:31.430Z,13.90
2018-08-10T03:42:00.239Z,13.70
2018-08-10T03:44:28.744Z,13.80
2018-08-10T03:46:57.420Z,12.83
2018-08-10T03:49:25.912Z,14.43
2018-08-10T03:51:54.450Z,13.57
2018-08-10T03:54:22.954Z,12.87
2018-08-10T03:56:51.488Z,13.57
2018-08-10T03:59:19.992Z,13.23
2018-08-10T04:01:48.494Z,12.53
2018-08-10T04:04:17.007Z,13.00
2018-08-10T04:06:45.540Z,13.97
2018-08-10T04:09:14.046Z,13.53
2018-08-10T04:11:43.290Z,12.87
2018-08-10T04:14:11.803Z,13.40
2018-08-10T04:16:40.312Z,13.13
2018-08-10T04:19:08.807Z,13.37
2018-08-10T04:21:37.304Z,12.83
2018-08-10T04:24:05.835Z,13.10
2018-08-10T04:26:34.331Z,12.40
2018-08-10T04:29:02.889Z,13.00
2018-08-10T04:31:31.383Z,11.93
2018-08-10T04:34:00.226Z,12.93
2018-08-10T04:36:28.733Z,11.87
2018-08-10T04:38:57.247Z,12.00
2018-08-10T04:41:25.749Z,12.63
2018-08-10T04:43:54.265Z,12.77
2018-08-10T04:46:22.787Z,12.77
2018-08-10T04:48:51.288Z,11.53
2018-08-10T04:51:19.798Z,12.43
2018-08-10T04:53:48.295Z,12.43
2018-08-10T04:56:16.811Z,11.60
2018-08-10T04:58:45.315Z,11.83
2018-08-10T05:01:13.819Z,11.83
2018-08-10T05:03:42.332Z,11.33
2018-08-10T05:06:10.832Z,12.27
2018-08-10T05:08:39.336Z,11.77
2018-08-10T05:11:07.857Z,12.23
2018-08-10T05:13:36.359Z,12.00
2018-08-10T05:16:04.856Z,12.37
2018-08-10T05:18:33.362Z,11.17
2018-08-10T05:21:01.873Z,12.20
2018-08-10T05:23:30.399Z,11.70
2018-08-10T05:25:58.989Z,12.07
2018-08-10T05:28:27.433Z,11.93
2018-08-10T05:30:55.935Z,11.53
2018-08-10T05:33:24.439Z,11.00
2018-08-10T05:35:52.967Z,11.37
2018-08-10T05:38:21.465Z,12.00
2018-08-10T05:40:49.992Z,11.17
2018-08-10T05:43:18.499Z,11.77
2018-08-10T05:45:47.012Z,10.90
2018-08-10T05:48:15.538Z,11.40
2018-08-10T05:50:44.565Z,11.13
2018-08-10T05:53:13.456Z,11.03
2018-08-10T05:55:41.954Z,10.83
2018-08-10T05:58:10.463Z,11.30
2018-08-10T06:00:39.016Z,11.00
2018-08-10T06:03:07.484Z,10.80
2018-08-10T06:05:36.007Z,11.03
2018-08-10T06:08:04.515Z,10.50
2018-08-10T06:10:33.016Z,11.30
2018-08-10T06:13:01.553Z,10.73
2018-08-10T06:15:30.096Z,10.20
2018-08-10T06:17:58.592Z,10.87
2018-08-10T06:20:27.099Z,10.60
2018-08-10T06:22:55.671Z,10.60
2018-08-10T06:25:24.113Z,10.73
2018-08-10T06:27:52.749Z,10.13
2018-08-10T06:30:21.167Z,10.70
2018-08-10T06:32:49.664Z,10.80
2018-08-10T06:35:18.181Z,11.17
2018-08-10T06:37:46.703Z,10.70
2018-08-10T06:40:15.206Z,10.90
2018-08-10T06:42:43.712Z,10.67
2018-08-10T06:45:12.281Z,11.00
2018-08-10T06:47:40.762Z,10.70
2018-08-10T06:50:09.274Z,11.17
2018-08-10T06:52:37.807Z,10.53
2018-08-10T06:55:06.331Z,10.67
2018-08-10T06:57:35.087Z,10.67
2018-08-10T07:00:03.811Z,11.07
2018-08-10T07:02:32.335Z,10.93
2018-08-10T07:05:00.844Z,11.27
2018-08-10T07:07:29.390Z,11.23
2018-08-10T07:09:57.892Z,11.53
2018-08-10T07:12:26.397Z,11.03
2018-08-10T07:14:54.916Z,11.23
2018-08-10T07:17:23.439Z,11.30
2018-08-10T07:19:51.980Z,11.50
2018-08-10T07:22:20.496Z,11.63
2018-08-10T07:24:49.010Z,11.80
2018-08-10T07:27:17.621Z,11.17
2018-08-10T07:29:46.071Z,10.67
2018-08-10T07:32:14.619Z,11.70
2018-08-10T07:34:43.133Z,11.50
2018-08-10T07:37:11.627Z,10.93
2018-08-10T07:39:40.144Z,11.33
2018-08-10T07:42:08.664Z,11.43
2018-08-10T07:44:37.176Z,11.47
2018-08-10T07:47:05.675Z,10.70
2018-08-10T07:49:34.191Z,11.43
2018-08-10T07:52:02.726Z,11.47
2018-08-10T07:54:31.222Z,11.27
2018-08-10T07:56:59.739Z,11.17
2018-08-10T07:59:28.276Z,11.47
2018-08-10T08:01:56.771Z,11.57
2018-08-10T08:04:25.283Z,11.43
2018-08-10T08:06:53.794Z,11.40
2018-08-10T08:09:22.299Z,12.03
2018-08-10T08:11:50.817Z,11.83
2018-08-10T08:14:19.311Z,12.00
2018-08-10T08:16:47.823Z,11.97
2018-08-10T08:19:16.328Z,12.10
2018-08-10T08:22:06.356Z,12.20
2018-08-10T08:24:34.855Z,12.40
2018-08-10T08:27:03.388Z,12.30
2018-08-10T08:29:31.867Z,12.13
2018-08-10T08:32:01.399Z,12.43
2018-08-10T08:34:29.944Z,12.90
2018-08-10T08:36:58.850Z,12.60
2018-08-10T08:39:38.509Z,13.03
2018-08-10T08:42:07.012Z,12.90
2018-08-10T08:44:46.955Z,12.67
2018-08-10T08:47:15.464Z,12.23
2018-08-10T08:49:43.992Z,12.40
2018-08-10T08:52:12.520Z,11.93
2018-08-10T08:55:00.903Z,12.53
2018-08-10T08:57:29.404Z,12.23
2018-08-10T08:59:57.903Z,12.10
2018-08-10T09:02:26.495Z,12.00
2018-08-10T09:05:02.884Z,11.70
2018-08-10T09:07:32.189Z,11.67
2018-08-10T09:10:01.446Z,11.47
2018-08-10T09:12:30.566Z,11.50
2018-08-10T09:15:07.668Z,11.40
2018-08-10T09:17:36.774Z,11.33
2018-08-10T09:20:06.432Z,11.57
2018-08-10T09:22:34.952Z,11.90
2018-08-10T09:25:03.463Z,11.83
2018-08-10T09:27:31.974Z,11.70
2018-08-10T09:30:00.471Z,11.87
2018-08-10T09:32:28.970Z,11.70
2018-08-10T09:34:57.463Z,11.57
2018-08-10T09:37:25.979Z,11.90
2018-08-10T09:39:54.483Z,12.10
2018-08-10T09:42:23.008Z,11.70
2018-08-10T09:44:51.500Z,11.77
2018-08-10T09:47:20.003Z,11.80
2018-08-10T09:49:49.640Z,11.57
2018-08-10T09:52:18.152Z,11.90
2018-08-10T09:55:31.863Z,12.07
2018-08-10T09:58:07.767Z,12.53
2018-08-10T10:00:41.527Z,11.43
2018-08-10T10:03:16.683Z,11.67
2018-08-10T10:05:45.740Z,12.73
2018-08-10T10:08:14.519Z,12.07
2018-08-10T10:10:43.031Z,12.30
2018-08-10T10:13:11.539Z,11.50
2018-08-10T10:15:40.678Z,11.90
2018-08-10T10:18:10.583Z,11.43
2018-08-10T10:20:39.287Z,12.03
2018-08-10T10:23:07.981Z,12.20
2018-08-10T10:25:36.515Z,12.20
2018-08-10T10:28:05.044Z,11.93
2018-08-10T10:30:33.555Z,12.53
2018-08-10T10:33:02.057Z,12.47
2018-08-10T10:35:30.569Z,12.77
2018-08-10T10:37:59.084Z,11.90
2018-08-10T10:40:27.606Z,12.57
2018-08-10T10:42:56.102Z,12.93
2018-08-10T10:45:24.615Z,12.87
2018-08-10T10:47:53.124Z,13.20
2018-08-10T10:50:21.624Z,12.90
2018-08-10T10:52:50.133Z,12.63
2018-08-10T10:55:18.643Z,12.13
2018-08-10T10:57:47.159Z,12.60
2018-08-10T11:00:17.419Z,13.33
2018-08-10T11:02:46.468Z,13.97
2018-08-10T11:05:15.012Z,13.67
2018-08-10T11:07:43.552Z,13.97
2018-08-10T11:10:13.619Z,13.53
2018-08-10T11:12:42.130Z,13.80
2018-08-10T11:15:11.558Z,13.83
2018-08-10T11:17:40.080Z,14.63
2018-08-10T11:20:10.239Z,14.60
2018-08-10T11:22:39.809Z,14.93
2018-08-10T11:25:09.523Z,15.07
2018-08-10T11:27:38.043Z,14.77
2018-08-10T11:30:07.487Z,14.53
2018-08-10T11:32:36.395Z,15.03
2018-08-10T11:35:05.467Z,15.10
2018-08-10T11:37:34.010Z,15.87
2018-08-10T11:40:02.525Z,16.40
2018-08-10T11:42:31.047Z,16.03
2018-08-10T11:44:59.567Z,15.17
2018-08-10T11:47:28.079Z,16.63
2018-08-10T11:49:56.592Z,15.93
2018-08-10T11:52:25.119Z,15.93
2018-08-10T11:54:53.635Z,16.20
2018-08-10T11:57:22.153Z,15.93
2018-08-10T11:59:50.654Z,16.07
2018-08-10T12:02:19.196Z,17.27
2018-08-10T12:04:47.696Z,16.23
2018-08-10T12:07:16.207Z,16.73
2018-08-10T12:09:44.711Z,17.43
2018-08-10T12:12:13.254Z,16.53
2018-08-10T12:14:42.191Z,15.43
2018-08-10T12:17:10.696Z,15.17
2018-08-10T12:19:39.224Z,13.20
2018-08-10T12:22:07.746Z,13.23
2018-08-10T12:24:37.007Z,14.00
2018-08-10T12:27:06.439Z,13.93
2018-08-10T12:29:34.943Z,12.90
2018-08-10T12:32:03.449Z,13.53
2018-08-10T12:34:32.339Z,13.77
2018-08-10T12:37:00.852Z,14.07
2018-08-10T12:39:29.354Z,12.87
2018-08-10T12:41:57.878Z,13.57
2018-08-10T12:44:27.039Z,12.80
2018-08-10T12:46:55.531Z,12.67
2018-08-10T12:49:24.036Z,12.20
2018-08-10T12:51:52.539Z,12.83
2018-08-10T12:54:21.075Z,11.60
2018-08-10T12:56:49.580Z,12.80
2018-08-10T12:59:18.088Z,12.03
2018-08-10T13:01:46.586Z,11.63
2018-08-10T13:04:15.096Z,11.87
2018-08-10T13:06:43.600Z,11.30
2018-08-10T13:09:13.456Z,11.50
2018-08-10T13:11:41.985Z,12.33
2018-08-10T13:14:10.867Z,12.20
2018-08-10T13:16:39.365Z,12.17
2018-08-10T13:19:08.177Z,11.43
2018-08-10T13:21:37.015Z,11.47
2018-08-10T13:24:05.504Z,11.17
2018-08-10T13:26:34.008Z,11.60
2018-08-10T13:29:02.515Z,11.63
2018-08-10T13:31:31.022Z,11.80
2018-08-10T13:33:59.530Z,11.50
2018-08-10T13:36:28.031Z,11.83
2018-08-10T13:38:56.534Z,11.63
2018-08-10T13:41:25.051Z,12.30
2018-08-10T13:43:53.594Z,11.87
2018-08-10T13:46:22.094Z,12.30
2018-08-10T13:48:51.013Z,12.07
2018-08-10T13:51:19.530Z,12.07
2018-08-10T13:53:48.043Z,11.63
2018-08-10T13:56:16.543Z,11.40
2018-08-10T13:58:45.105Z,11.90
2018-08-10T14:01:13.579Z,10.70
2018-08-10T14:03:42.095Z,10.97
2018-08-10T14:06:11.064Z,11.53
2018-08-10T14:08:39.511Z,13.63
2018-08-10T14:11:08.011Z,14.83
2018-08-10T14:13:36.518Z,15.43
2018-08-10T14:16:05.020Z,15.13
2018-08-10T14:18:33.551Z,14.20
2018-08-10T14:21:02.044Z,14.20
2018-08-10T14:23:30.555Z,13.67
2018-08-10T14:25:59.063Z,13.13
2018-08-10T14:28:27.567Z,13.37
2018-08-10T14:30:56.127Z,12.77
2018-08-10T14:33:24.689Z,12.50
2018-08-10T14:35:53.163Z,13.63
2018-08-10T14:38:21.667Z,12.63
2018-08-10T14:40:50.159Z,12.57
2018-08-10T14:43:18.675Z,13.03
2018-08-10T14:45:47.192Z,14.07
2018-08-10T14:48:15.691Z,13.40
2018-08-10T14:50:44.362Z,12.60
2018-08-10T14:53:12.860Z,12.60
2018-08-10T14:55:41.367Z,12.33
2018-08-10T14:58:09.883Z,13.63
2018-08-10T15:00:38.450Z,12.70
2018-08-10T15:03:07.223Z,12.60
2018-08-10T15:05:35.755Z,12.53
2018-08-10T15:08:04.293Z,13.40
2018-08-10T15:10:32.782Z,12.20
2018-08-10T15:13:01.375Z,12.13
2018-08-10T15:15:29.799Z,12.43
2018-08-10T15:17:58.310Z,11.33
2018-08-10T15:20:27.119Z,11.73
2018-08-10T15:22:55.640Z,11.77
2018-08-10T15:25:24.147Z,12.30
2018-08-10T15:27:52.667Z,12.30
2018-08-10T15:30:21.182Z,11.73
2018-08-10T15:32:49.682Z,11.40
2018-08-10T15:35:18.656Z,12.37
2018-08-10T15:37:47.168Z,11.60
2018-08-10T15:40:17.527Z,11.70
2018-08-10T15:42:46.250Z,11.67
2018-08-10T15:45:16.168Z,11.67
2018-08-10T15:47:45.466Z,11.73
2018-08-10T15:50:14.539Z,12.40
2018-08-10T15:52:44.676Z,11.47
2018-08-10T15:55:14.031Z,12.37
2018-08-10T15:57:42.547Z,11.90
2018-08-10T16:00:21.947Z,11.50
2018-08-10T16:02:50.455Z,11.47
2018-08-10T16:05:18.956Z,11.30
2018-08-10T16:07:47.475Z,11.20
2018-08-10T16:10:15.992Z,10.97
2018-08-10T16:12:44.499Z,12.40
2018-08-10T16:15:17.599Z,11.57
2018-08-10T16:17:46.279Z,11.77
2018-08-10T16:20:16.759Z,10.90
2018-08-10T16:22:45.287Z,11.23
2018-08-10T16:25:13.807Z,10.20
2018-08-10T16:27:43.480Z,10.73
2018-08-10T16:30:13.642Z,10.93
2018-08-10T16:32:42.998Z,10.57
2018-08-10T16:35:12.999Z,10.27
2018-08-10T16:37:42.827Z,10.23
2018-08-10T16:40:13.047Z,9.73
2018-08-10T16:42:42.350Z,10.13
2018-08-10T16:45:11.715Z,9.77
2018-08-10T16:47:40.947Z,9.60
2018-08-10T16:50:18.574Z,9.07
2018-08-10T16:52:47.399Z,9.73
2018-08-10T16:55:19.491Z,9.30
2018-08-10T16:57:48.918Z,9.03
2018-08-10T17:00:19.100Z,9.20
2018-08-10T17:02:48.115Z,8.33
2018-08-10T17:05:16.638Z,9.17
2018-08-10T17:07:45.303Z,8.93
2018-08-10T17:10:14.234Z,8.57
2018-08-10T17:12:44.083Z,8.37
2018-08-10T17:15:15.180Z,8.40
2018-08-10T17:17:44.545Z,8.50
2018-08-10T17:20:13.827Z,8.90
2018-08-10T17:22:43.095Z,8.87
2018-08-10T17:25:14.323Z,7.60
2018-08-10T17:27:42.831Z,8.37
2018-08-10T17:30:14.407Z,8.30
2018-08-10T17:32:42.935Z,7.70
2018-08-10T17:35:13.027Z,7.73
2018-08-10T17:37:42.724Z,8.30
2018-08-10T17:40:11.240Z,8.23
2018-08-10T17:42:39.808Z,8.63
2018-08-10T17:45:12.519Z,7.90
2018-08-10T17:47:41.033Z,7.60
2018-08-10T17:50:13.283Z,7.93
2018-08-10T17:52:43.757Z,8.30
2018-08-10T17:55:12.919Z,8.07
2018-08-10T17:57:41.615Z,8.20
2018-08-10T18:00:13.378Z,7.60
2018-08-10T18:03:08.845Z,7.97
2018-08-10T18:05:37.325Z,8.00
2018-08-10T18:08:05.831Z,7.50
2018-08-10T18:10:34.323Z,7.30
2018-08-10T18:13:02.819Z,7.10
2018-08-10T18:15:31.349Z,7.50
2018-08-10T18:17:59.846Z,7.17
2018-08-10T18:20:28.368Z,7.47
2018-08-10T18:22:56.883Z,6.57
2018-08-10T18:25:25.380Z,7.70
2018-08-10T18:27:53.895Z,7.60
2018-08-10T18:30:24.089Z,7.20
2018-08-10T18:32:53.008Z,6.73
2018-08-10T18:35:21.515Z,7.40
2018-08-10T18:37:50.540Z,6.93
2018-08-10T18:40:19.714Z,7.73
2018-08-10T18:42:49.291Z,7.23
2018-08-10T18:45:20.383Z,7.50
2018-08-10T18:47:49.119Z,6.77
2018-08-10T18:50:19.181Z,6.70
2018-08-10T18:52:47.707Z,7.00
2018-08-10T18:55:20.547Z,6.27
2018-08-10T18:57:49.667Z,7.10
2018-08-10T19:00:22.879Z,7.27
2018-08-10T19:02:51.398Z,7.60
2018-08-10T19:05:19.937Z,7.37
2018-08-10T19:07:49.052Z,7.13
2018-08-10T19:10:24.787Z,7.23
2018-08-10T19:12:53.297Z,7.40
2018-08-10T19:15:21.807Z,6.97
2018-08-10T19:17:50.332Z,7.40
2018-08-10T19:20:18.870Z,6.87
2018-08-10T19:22:47.814Z,7.07
2018-08-10T19:25:16.952Z,7.57
2018-08-10T19:27:45.469Z,6.57
2018-08-10T19:30:16.424Z,6.90
2018-08-10T19:32:46.043Z,7.47
2018-08-10T19:35:15.031Z,7.00
2018-08-10T19:37:43.788Z,7.73
2018-08-10T19:40:14.000Z,7.97
2018-08-10T19:42:42.538Z,7.47
2018-08-10T19:45:12.380Z,7.27
2018-08-10T19:47:41.231Z,7.50
2018-08-10T19:50:11.446Z,7.87
2018-08-10T19:52:39.953Z,7.67
2018-08-10T19:55:10.567Z,7.20
2018-08-10T19:57:39.663Z,7.60
2018-08-10T20:00:10.330Z,7.53
2018-08-10T20:02:38.899Z,7.13
2018-08-10T20:05:08.782Z,7.37
2018-08-10T20:07:37.470Z,6.80
2018-08-10T20:10:07.196Z,7.13
2018-08-10T20:12:36.376Z,7.67
2018-08-10T20:15:06.965Z,7.20
2018-08-10T20:17:35.454Z,7.73
2018-08-10T20:20:04.888Z,7.70
2018-08-10T20:22:33.404Z,7.30
2018-08-10T20:25:02.215Z,7.30
2018-08-10T20:27:30.718Z,7.70
2018-08-10T20:29:59.230Z,7.47
2018-08-10T20:32:27.728Z,7.13
2018-08-10T20:34:56.239Z,7.20
2018-08-10T20:37:24.731Z,7.00
2018-08-10T20:39:53.238Z,7.37
2018-08-10T20:42:21.753Z,7.03
2018-08-10T20:44:50.259Z,6.63
2018-08-10T20:47:18.764Z,6.87
2018-08-10T20:49:47.270Z,6.23
2018-08-10T20:52:15.782Z,6.40
2018-08-10T20:54:44.283Z,6.20
2018-08-10T20:57:13.052Z,6.50
2018-08-10T20:59:41.835Z,5.90
2018-08-10T21:02:11.009Z,6.23
2018-08-10T21:04:39.519Z,5.90
2018-08-10T21:07:08.027Z,5.73
2018-08-10T21:09:36.548Z,5.20
2018-08-10T21:12:05.047Z,4.80
2018-08-10T21:14:33.555Z,5.27
2018-08-10T21:17:02.064Z,4.57
2018-08-10T21:19:30.577Z,4.73
2018-08-10T21:21:59.071Z,5.03
2018-08-10T21:24:27.577Z,4.37
2018-08-10T21:26:56.069Z,4.40
2018-08-10T21:29:24.572Z,4.47
2018-08-10T21:31:53.075Z,4.30
2018-08-10T21:34:21.591Z,4.87
2018-08-10T21:36:50.100Z,4.47
2018-08-10T21:39:18.587Z,4.17
2018-08-10T21:41:47.083Z,4.17
2018-08-10T21:44:15.579Z,4.27
2018-08-10T21:46:44.080Z,4.10
2018-08-10T21:49:12.579Z,3.97
2018-08-10T21:51:41.111Z,4.40
2018-08-10T21:54:09.608Z,3.70
2018-08-10T21:56:38.105Z,4.30
2018-08-10T21:59:06.614Z,4.13
2018-08-10T22:01:35.135Z,3.87
2018-08-10T22:04:04.425Z,3.90
2018-08-10T22:06:33.722Z,3.77
2018-08-10T22:09:02.799Z,4.00
2018-08-10T22:11:31.304Z,3.63
2018-08-10T22:14:05.420Z,4.27
2018-08-10T22:16:39.668Z,4.00
2018-08-10T22:19:16.566Z,4.30
2018-08-10T22:21:46.150Z,4.47
2018-08-10T22:24:15.443Z,4.27
2018-08-10T22:26:44.438Z,4.20
2018-08-10T22:29:12.959Z,4.47
2018-08-10T22:31:41.466Z,4.37
2018-08-10T22:34:09.970Z,4.80
2018-08-10T22:36:38.468Z,4.27
2018-08-10T22:39:08.211Z,4.23
2018-08-10T22:41:37.180Z,4.13
2018-08-10T22:44:05.673Z,4.53
2018-08-10T22:46:34.565Z,4.57
2018-08-10T22:49:03.064Z,4.87
2018-08-10T22:51:31.575Z,4.30
2018-08-10T22:54:00.140Z,4.40
2018-08-10T22:56:28.627Z,4.43
2018-08-10T22:58:57.135Z,4.03
2018-08-10T23:01:25.639Z,4.47
2018-08-10T23:03:54.148Z,4.73
2018-08-10T23:06:22.640Z,4.73
2018-08-10T23:08:51.239Z,4.67
2018-08-10T23:11:19.679Z,4.03
2018-08-10T23:13:48.189Z,4.47
2018-08-10T23:16:16.703Z,4.67
2018-08-10T23:18:45.199Z,4.30
2018-08-10T23:21:13.692Z,4.30
2018-08-10T23:23:42.216Z,4.70
2018-08-10T23:26:10.726Z,4.70
2018-08-10T23:28:39.225Z,4.87
2018-08-10T23:31:07.717Z,4.70
2018-08-10T23:33:36.211Z,4.27
2018-08-10T23:36:04.724Z,4.80
2018-08-10T23:38:33.223Z,4.47
2018-08-10T23:41:01.739Z,4.87
2018-08-10T23:43:30.271Z,4.80
2018-08-10T23:45:58.863Z,4.80
2018-08-10T23:48:27.375Z,4.33
2018-08-10T23:50:55.876Z,4.97
2018-08-10T23:53:24.379Z,4.47
2018-08-10T23:55:52.931Z,4.87
2018-08-10T23:58:21.479Z,4.60
